createdAt,value
2017-11-12T00:06:59.090Z,3.67
2017-11-12T00:26:33.944Z,2.97
2017-11-12T00:28:59.748Z,3.33
2017-11-12T00:48:47.756Z,3.85
2017-11-12T00:51:13.601Z,3.70
2017-11-12T00:54:03.063Z,4.30
2017-11-12T00:57:00.958Z,3.90
2017-11-12T00:59:58.258Z,4.07
2017-11-12T01:02:55.325Z,3.30
2017-11-12T01:05:52.570Z,3.95
2017-11-12T01:08:50.498Z,4.25
2017-11-12T01:14:38.051Z,4.65
2017-11-12T01:17:26.933Z,3.90
2017-11-12T01:20:24.924Z,3.97
2017-11-12T01:36:16.337Z,2.70
2017-11-12T01:55:53.175Z,2.92
2017-11-12T01:58:18.973Z,3.00
2017-11-12T02:17:54.362Z,5.22
2017-11-12T02:37:01.861Z,5.65
2017-11-12T02:39:58.793Z,5.90
2017-11-12T02:59:15.761Z,6.75
2017-11-12T03:02:13.110Z,8.10
2017-11-12T03:04:38.914Z,7.45
2017-11-12T03:07:28.508Z,8.47
2017-11-12T03:10:25.528Z,8.75
2017-11-12T03:26:17.919Z,6.90
2017-11-12T03:29:07.043Z,7.33
2017-11-12T03:32:04.911Z,7.15
2017-11-12T03:35:01.912Z,7.07
2017-11-12T03:47:47.123Z,8.23
2017-11-12T03:50:37.029Z,8.07
2017-11-12T03:53:34.968Z,7.57
2017-11-12T03:56:33.065Z,6.85
2017-11-12T03:59:30.819Z,5.90
2017-11-12T04:02:28.455Z,7.47
2017-11-12T04:05:26.104Z,6.47
2017-11-12T04:08:23.247Z,6.60
2017-11-12T04:10:49.056Z,8.27
2017-11-12T04:30:25.296Z,6.70
2017-11-12T04:49:33.570Z,6.97
2017-11-12T04:52:30.500Z,5.18
2017-11-12T04:54:56.300Z,5.35
2017-11-12T04:57:45.700Z,8.00
2017-11-12T05:16:58.496Z,7.10
2017-11-12T05:19:48.365Z,6.90
2017-11-12T05:39:01.168Z,3.62
2017-11-12T05:58:35.805Z,4.70
2017-11-12T06:17:42.493Z,4.30
2017-11-12T06:20:39.483Z,3.80
2017-11-12T06:23:05.264Z,4.18
2017-11-12T06:42:42.087Z,4.57
2017-11-12T06:45:07.901Z,5.12
2017-11-12T06:47:57.347Z,5.10
2017-11-12T06:50:54.528Z,5.00
2017-11-12T06:53:52.334Z,6.37
2017-11-12T07:06:49.479Z,6.85
2017-11-12T07:09:39.120Z,5.40
2017-11-12T07:12:37.000Z,5.70
2017-11-12T07:28:28.072Z,5.80
2017-11-12T07:50:53.472Z,5.20
2017-11-12T07:53:43.313Z,5.97
2017-11-12T07:56:41.081Z,5.05
2017-11-12T08:15:51.905Z,6.20
2017-11-12T08:18:49.775Z,6.28
2017-11-12T08:21:46.816Z,6.45
2017-11-12T08:24:44.656Z,7.12
2017-11-12T08:34:24.868Z,6.82
2017-11-12T08:37:15.546Z,7.50
2017-11-12T08:56:27.718Z,8.38
2017-11-12T09:16:04.408Z,6.70
2017-11-12T09:18:30.185Z,5.40
2017-11-12T09:21:20.119Z,6.87
2017-11-12T09:40:31.828Z,3.47
2017-11-12T09:43:20.833Z,3.80
2017-11-12T09:46:17.738Z,3.72
2017-11-12T09:49:15.712Z,3.65
2017-11-12T09:52:13.594Z,2.75
2017-11-12T09:55:11.312Z,2.90
2017-11-12T10:14:20.033Z,2.62
2017-11-12T10:33:40.253Z,2.10
2017-11-12T10:56:06.575Z,2.10
2017-11-12T10:59:04.435Z,1.55
2017-11-12T11:02:02.395Z,2.03
2017-11-12T11:05:00.610Z,1.67
2017-11-12T11:07:58.494Z,2.92
2017-11-12T11:27:05.842Z,1.40
2017-11-12T11:36:13.285Z,1.55
2017-11-12T11:39:02.293Z,1.23
2017-11-12T11:58:13.088Z,0.60
2017-11-12T12:01:02.804Z,0.70
2017-11-12T12:04:00.550Z,0.70
2017-11-12T12:06:58.491Z,0.80
2017-11-12T12:19:43.247Z,0.60
2017-11-12T12:39:26.237Z,3.40
2017-11-12T12:41:52.065Z,1.20
2017-11-12T12:44:41.646Z,1.00
2017-11-12T13:03:55.867Z,1.50
2017-11-12T13:06:45.735Z,1.80
2017-11-12T13:25:58.697Z,2.90
2017-11-12T13:28:47.861Z,2.53
2017-11-12T13:48:01.100Z,1.80
2017-11-12T14:07:36.886Z,1.60
2017-11-12T14:10:02.720Z,0.90
2017-11-12T14:12:51.763Z,1.10
2017-11-12T14:32:04.060Z,1.08
2017-11-12T14:51:40.520Z,1.85
2017-11-12T15:10:48.749Z,9.13
2017-11-12T15:13:45.804Z,3.72
2017-11-12T15:16:11.608Z,2.20
2017-11-12T15:35:47.917Z,2.78
2017-11-12T15:54:55.713Z,3.33
2017-11-12T15:57:52.641Z,2.72
2017-11-12T16:00:18.408Z,2.22
2017-11-12T16:03:07.807Z,2.77
2017-11-12T16:22:21.584Z,2.70
2017-11-12T16:25:11.539Z,4.30
2017-11-12T16:44:24.740Z,1.50
2017-11-12T16:47:14.490Z,2.60
2017-11-12T16:50:12.474Z,1.55
2017-11-12T16:53:10.108Z,1.65
2017-11-12T16:56:07.855Z,3.25
2017-11-12T17:05:58.391Z,1.50
2017-11-12T17:25:34.936Z,2.70
2017-11-12T17:28:00.732Z,1.90
2017-11-12T17:47:38.107Z,3.08
2017-11-12T17:50:03.928Z,3.85
2017-11-12T18:09:40.167Z,1.60
2017-11-12T18:12:05.994Z,1.98
2017-11-12T18:14:55.233Z,2.47
2017-11-12T18:17:53.091Z,2.05
2017-11-12T18:20:50.908Z,1.92
2017-11-12T18:23:48.721Z,4.12
2017-11-12T18:26:46.890Z,2.08
2017-11-12T18:35:56.251Z,2.45
2017-11-12T18:38:46.295Z,2.20
2017-11-12T18:41:43.309Z,5.10
2017-11-12T18:57:35.012Z,23.10
2017-11-12T19:03:30.851Z,8.50
2017-11-12T19:06:02.712Z,9.25
2017-11-12T19:08:28.658Z,4.30
2017-11-12T19:10:54.558Z,4.60
2017-11-12T19:13:20.536Z,6.40
2017-11-12T19:15:46.622Z,4.70
2017-11-12T19:18:12.557Z,6.20
2017-11-12T19:20:42.612Z,5.47
2017-11-12T19:23:09.473Z,5.22
2017-11-12T19:25:38.323Z,4.85
2017-11-12T19:28:09.157Z,4.07
2017-11-12T19:30:35.224Z,3.92
2017-11-12T19:33:01.259Z,3.95
2017-11-12T19:35:27.399Z,5.50
2017-11-12T19:37:53.664Z,4.00
2017-11-12T19:40:19.757Z,5.50
2017-11-12T19:42:45.915Z,3.65
2017-11-12T19:45:12.058Z,3.42
2017-11-12T19:47:38.224Z,2.78
2017-11-12T19:50:04.412Z,2.22
2017-11-12T19:52:30.544Z,2.53
2017-11-12T19:54:56.677Z,1.95
2017-11-12T19:57:22.850Z,2.80
2017-11-12T19:59:48.977Z,2.17
2017-11-12T20:02:15.149Z,2.58
2017-11-12T20:04:41.239Z,1.87
2017-11-12T20:07:07.376Z,8.75
2017-11-12T20:09:33.431Z,3.70
2017-11-12T20:11:59.576Z,1.65
2017-11-12T20:14:25.599Z,2.20
2017-11-12T20:16:51.689Z,1.90
2017-11-12T20:19:17.794Z,2.10
2017-11-12T20:21:43.861Z,2.05
2017-11-12T20:24:09.783Z,2.45
2017-11-12T20:26:35.734Z,1.60
2017-11-12T20:29:01.617Z,1.87
2017-11-12T20:31:27.500Z,1.70
2017-11-12T20:33:53.370Z,1.70
2017-11-12T20:36:19.215Z,1.60
2017-11-12T20:38:45.956Z,2.30
2017-11-12T20:41:11.836Z,2.30
2017-11-12T20:43:37.664Z,2.37
2017-11-12T20:46:03.490Z,1.80
2017-11-12T20:48:29.320Z,2.70
2017-11-12T20:50:55.235Z,2.10
2017-11-12T20:53:21.068Z,3.63
2017-11-12T20:55:46.912Z,6.70
2017-11-12T20:58:12.870Z,2.47
2017-11-12T21:00:38.788Z,1.57
2017-11-12T21:03:04.674Z,2.40
2017-11-12T21:05:30.521Z,2.50
2017-11-12T21:07:56.443Z,3.47
2017-11-12T21:10:22.247Z,3.17
2017-11-12T21:12:48.097Z,3.50
2017-11-12T21:15:14.018Z,2.27
2017-11-12T21:17:39.959Z,2.20
2017-11-12T21:23:12.409Z,2.47
2017-11-12T21:25:38.243Z,2.12
2017-11-12T21:28:09.994Z,2.47
2017-11-12T21:30:37.881Z,3.03
2017-11-12T21:33:04.729Z,2.45
2017-11-12T21:35:40.509Z,2.50
2017-11-12T21:38:06.348Z,2.15
2017-11-12T21:40:32.162Z,2.17
2017-11-12T21:42:57.998Z,2.03
2017-11-12T21:45:23.892Z,1.80
2017-11-12T21:47:49.688Z,2.37
2017-11-12T21:50:15.544Z,2.80
2017-11-12T21:52:41.357Z,3.63
2017-11-12T21:55:07.208Z,2.30
2017-11-12T21:57:33.027Z,3.10
2017-11-12T21:59:58.831Z,3.30
2017-11-12T22:02:24.659Z,6.53
2017-11-12T22:04:50.492Z,6.30
2017-11-12T22:07:16.296Z,3.27
2017-11-12T22:09:42.119Z,3.70
2017-11-12T22:12:07.940Z,3.90
2017-11-12T22:14:33.748Z,3.63
2017-11-12T22:16:59.603Z,3.70
2017-11-12T22:19:25.412Z,3.83
2017-11-12T22:21:51.213Z,3.50
2017-11-12T22:24:17.023Z,3.27
2017-11-12T22:26:42.834Z,3.70
2017-11-12T22:29:08.712Z,5.43
2017-11-12T22:31:34.533Z,4.30
2017-11-12T22:34:00.395Z,2.80
2017-11-12T22:36:26.198Z,5.20
2017-11-12T22:38:51.991Z,3.60
2017-11-12T22:41:18.082Z,3.37
2017-11-12T22:43:43.964Z,3.37
2017-11-12T22:46:09.804Z,3.13
2017-11-12T22:48:35.625Z,3.60
2017-11-12T22:51:01.429Z,3.20
2017-11-12T22:53:27.232Z,4.07
2017-11-12T22:55:53.029Z,3.30
2017-11-12T22:58:18.831Z,3.93
2017-11-12T23:00:50.734Z,3.40
2017-11-12T23:03:16.598Z,3.50
2017-11-12T23:05:42.452Z,3.00
2017-11-12T23:08:08.227Z,4.10
2017-11-12T23:10:34.019Z,4.03
2017-11-12T23:12:59.928Z,4.27
2017-11-12T23:15:25.732Z,3.90
2017-11-12T23:17:51.567Z,3.57
2017-11-12T23:20:17.365Z,4.53
2017-11-12T23:22:43.183Z,4.67
2017-11-12T23:25:08.994Z,4.47
2017-11-12T23:27:34.812Z,3.57
2017-11-12T23:30:00.727Z,4.40
2017-11-12T23:32:26.530Z,4.20
2017-11-12T23:34:52.344Z,3.67
2017-11-12T23:37:18.452Z,3.60
2017-11-12T23:39:44.241Z,4.10
2017-11-12T23:42:10.065Z,4.00
2017-11-12T23:44:35.848Z,3.40
2017-11-12T23:47:01.661Z,3.77
2017-11-12T23:49:27.452Z,4.70
2017-11-12T23:51:53.251Z,4.43
2017-11-12T23:54:19.055Z,5.40
2017-11-12T23:56:44.873Z,4.60
2017-11-12T23:59:10.710Z,4.47
